Time;durP1;ratioP1;P1;durP2;ratioP2;P2;SDS_P1;SDS_P2;PMS_P1;PMS_P2;Temp;Humidity;BMP_temperature;BMP_pressure;BME280_temperature;BME280_humidity;BME280_pressure;Samples;Min_cycle;Max_cycle;Signal;HPM_P1;HPM_P2
2022/03/24 00:00:17;;;;;;;10.00;8.20;;;20.70;72.20;;;;;;4218870;28;20282;-69
2022/03/24 00:02:20;;;;;;;11.82;7.55;;;20.70;72.20;;;;;;4214010;28;20215;-69
2022/03/24 00:04:22;;;;;;;9.38;7.30;;;20.70;72.00;;;;;;4219446;28;20628;-69
2022/03/24 00:06:25;;;;;;;9.35;7.95;;;20.70;72.20;;;;;;4222470;28;20222;-69
2022/03/24 00:08:27;;;;;;;9.98;7.80;;;20.70;72.10;;;;;;4231165;28;20263;-69
2022/03/24 00:10:31;;;;;;;10.30;8.15;;;20.70;72.20;;;;;;4218779;27;20697;-69
2022/03/24 00:12:34;;;;;;;9.40;7.95;;;20.70;72.40;;;;;;4223460;27;20221;-69
2022/03/24 00:14:37;;;;;;;10.43;8.00;;;20.70;71.80;;;;;;4230650;28;20210;-69
2022/03/24 00:16:39;;;;;;;10.18;7.85;;;20.70;72.20;;;;;;4230085;28;20209;-69
2022/03/24 00:18:42;;;;;;;10.63;7.68;;;20.70;72.10;;;;;;4229227;28;20217;-69
2022/03/24 00:20:44;;;;;;;9.52;8.40;;;20.70;72.10;;;;;;4230440;28;20259;-69
2022/03/24 00:22:46;;;;;;;10.82;8.57;;;20.60;71.90;;;;;;4224813;28;20240;-73
2022/03/24 00:24:49;;;;;;;10.43;8.30;;;20.70;71.90;;;;;;4222772;28;20267;-73
2022/03/24 00:26:53;;;;;;;8.65;7.55;;;20.60;72.10;;;;;;4225797;27;20277;-73
2022/03/24 00:28:55;;;;;;;9.40;8.02;;;20.70;72.20;;;;;;4224085;28;20214;-73
2022/03/24 00:30:57;;;;;;;13.23;8.32;;;20.60;72.00;;;;;;4230273;28;20285;-74
2022/03/24 00:33:00;;;;;;;8.85;7.60;;;20.60;73.30;;;;;;4229982;28;20633;-73
2022/03/24 00:35:02;;;;;;;9.30;7.53;;;20.60;72.10;;;;;;4229940;28;20222;-74
2022/03/24 00:37:05;;;;;;;10.82;7.82;;;20.60;72.40;;;;;;4229862;28;20225;-73
2022/03/24 00:39:08;;;;;;;9.55;8.52;;;20.60;72.10;;;;;;4228947;28;20294;-73
2022/03/24 00:41:11;;;;;;;12.57;8.10;;;20.60;72.70;;;;;;4228450;28;20210;-73
2022/03/24 00:43:14;;;;;;;10.98;8.32;;;20.60;72.40;;;;;;4225554;28;20213;-73
2022/03/24 00:45:18;;;;;;;12.63;8.45;;;20.60;72.90;;;;;;4224913;28;20242;-73
2022/03/24 00:47:21;;;;;;;9.95;8.02;;;20.60;72.80;;;;;;4230327;28;20206;-73
2022/03/24 00:49:23;;;;;;;11.00;8.43;;;20.60;72.60;;;;;;4230083;28;20627;-73
2022/03/24 00:51:26;;;;;;;10.10;7.80;;;20.60;72.80;;;;;;4229432;28;20233;-73
2022/03/24 00:53:29;;;;;;;10.35;7.80;;;20.60;72.60;;;;;;4225985;28;20218;-73
2022/03/24 00:55:31;;;;;;;10.30;8.45;;;20.60;72.60;;;;;;4219186;28;20218;-73
2022/03/24 00:57:33;;;;;;;9.95;8.00;;;20.60;73.10;;;;;;4227344;28;20214;-73
2022/03/24 00:59:37;;;;;;;11.38;7.90;;;20.60;72.60;;;;;;4222117;28;20221;-73
2022/03/24 01:01:41;;;;;;;9.63;7.78;;;20.60;72.70;;;;;;4222271;28;20256;-73
2022/03/24 01:03:44;;;;;;;10.82;8.38;;;20.60;72.60;;;;;;4213299;28;20319;-73
2022/03/24 01:05:47;;;;;;;11.43;8.57;;;20.50;73.20;;;;;;4229537;28;20218;-73
2022/03/24 01:07:50;;;;;;;12.93;7.88;;;20.50;72.90;;;;;;4227045;28;20253;-73
2022/03/24 01:09:52;;;;;;;10.55;8.52;;;20.50;73.60;;;;;;4229744;28;20271;-73
2022/03/24 01:11:56;;;;;;;12.23;8.68;;;20.50;72.90;;;;;;4229687;28;20217;-73
2022/03/24 01:13:58;;;;;;;11.65;8.27;;;20.50;72.90;;;;;;4221402;28;20639;-73
2022/03/24 01:16:03;;;;;;;9.88;8.63;;;20.50;72.70;;;;;;4224429;28;20221;-73
2022/03/24 01:18:05;;;;;;;11.05;8.35;;;20.50;73.20;;;;;;4229485;28;20210;-74
2022/03/24 01:20:09;;;;;;;11.60;8.07;;;20.50;72.80;;;;;;4229814;28;20221;-73
2022/03/24 01:22:12;;;;;;;10.15;7.97;;;20.50;72.90;;;;;;4228858;28;20266;-73
2022/03/24 01:24:14;;;;;;;10.02;8.80;;;20.50;72.80;;;;;;4218607;28;20210;-73
2022/03/24 01:26:18;;;;;;;12.15;8.40;;;20.50;73.20;;;;;;4225747;28;20572;-73
2022/03/24 01:28:20;;;;;;;10.75;8.00;;;20.50;73.70;;;;;;4225235;28;20214;-73
2022/03/24 01:30:23;;;;;;;10.35;7.75;;;20.40;72.80;;;;;;4215380;28;20279;-73
2022/03/24 01:32:28;;;;;;;9.73;8.23;;;20.50;72.80;;;;;;4224771;28;20994;-73
2022/03/24 01:34:30;;;;;;;9.27;7.47;;;20.50;73.20;;;;;;4230008;28;20213;-73
2022/03/24 01:36:34;;;;;;;10.75;8.30;;;20.50;72.90;;;;;;4229311;28;20826;-73
2022/03/24 01:38:37;;;;;;;10.02;8.77;;;20.40;73.20;;;;;;4229274;28;20233;-73
2022/03/24 01:40:39;;;;;;;9.63;7.78;;;20.40;72.70;;;;;;4223160;28;20210;-73
2022/03/24 01:42:43;;;;;;;10.18;8.48;;;20.40;73.50;;;;;;4221887;28;20256;-73
2022/03/24 01:44:46;;;;;;;11.27;8.77;;;20.40;72.80;;;;;;4223555;28;20218;-73
2022/03/24 01:46:56;;;;;;;11.55;8.65;;;20.40;73.00;;;;;;4222457;28;20263;-73
2022/03/24 01:48:59;;;;;;;10.65;8.98;;;20.40;73.20;;;;;;4221079;28;20279;-73
2022/03/24 01:51:02;;;;;;;12.15;8.00;;;20.40;73.70;;;;;;4222180;28;20650;-73
2022/03/24 01:53:05;;;;;;;11.07;8.05;;;20.40;73.20;;;;;;4223950;28;20311;-74
2022/03/24 01:55:08;;;;;;;10.88;8.07;;;20.40;73.70;;;;;;4222022;28;20205;-73
2022/03/24 01:57:12;;;;;;;9.80;8.80;;;20.40;73.50;;;;;;4221611;28;20214;-73
2022/03/24 01:59:16;;;;;;;10.98;8.13;;;20.40;73.00;;;;;;4223226;27;20218;-73
2022/03/24 02:01:34;;;;;;;12.65;8.18;;;20.30;73.60;;;;;;4219349;28;20284;-73
2022/03/24 02:03:37;;;;;;;13.02;8.38;;;20.40;73.00;;;;;;4224403;27;20218;-73
2022/03/24 02:05:40;;;;;;;8.75;7.82;;;20.40;73.30;;;;;;4223219;27;20263;-73
2022/03/24 02:07:43;;;;;;;9.90;8.35;;;20.30;73.40;;;;;;4223898;27;20218;-73
2022/03/24 02:09:46;;;;;;;10.88;7.88;;;20.40;73.80;;;;;;4223526;28;20256;-73
2022/03/24 02:11:48;;;;;;;11.98;8.57;;;20.40;73.40;;;;;;4219950;28;21710;-73
2022/03/24 02:13:51;;;;;;;12.80;8.85;;;20.30;73.30;;;;;;4220798;28;20213;-73
2022/03/24 02:15:53;;;;;;;10.40;8.57;;;20.40;73.60;;;;;;4223230;28;20221;-73
2022/03/24 02:17:55;;;;;;;11.52;8.80;;;20.30;73.30;;;;;;4222009;27;20276;-73
2022/03/24 02:19:58;;;;;;;11.88;8.55;;;20.30;73.50;;;;;;4224755;28;20259;-73
2022/03/24 02:22:13;;;;;;;11.95;9.05;;;20.30;73.70;;;;;;4221673;27;20253;-73
2022/03/24 02:24:17;;;;;;;12.25;8.27;;;20.30;73.30;;;;;;4222508;28;20210;-73
2022/03/24 02:26:19;;;;;;;12.32;8.32;;;20.30;73.40;;;;;;4222736;28;20264;-73
2022/03/24 02:28:23;;;;;;;11.15;8.40;;;20.30;73.40;;;;;;4224770;28;20624;-73
2022/03/24 02:30:27;;;;;;;11.88;9.05;;;20.30;73.40;;;;;;4227592;28;20295;-73
2022/03/24 02:32:30;;;;;;;10.27;8.40;;;20.30;73.40;;;;;;4227778;28;20256;-73
2022/03/24 02:34:38;;;;;;;9.85;8.85;;;20.30;73.50;;;;;;4225785;28;20226;-73
2022/03/24 02:36:40;;;;;;;10.60;8.27;;;20.30;74.00;;;;;;4224393;28;20210;-73
2022/03/24 02:38:44;;;;;;;10.65;8.55;;;20.30;73.40;;;;;;4218653;28;20230;-73
2022/03/24 02:40:46;;;;;;;9.23;8.23;;;20.30;73.30;;;;;;4221658;28;20274;-73
2022/03/24 02:42:49;;;;;;;10.02;8.38;;;20.30;74.70;;;;;;4225591;28;20205;-74
2022/03/24 02:44:53;;;;;;;10.88;9.00;;;20.30;73.60;;;;;;4225111;28;20271;-73
2022/03/24 02:46:56;;;;;;;11.18;8.98;;;20.30;73.40;;;;;;4224305;28;20251;-73
2022/03/24 02:48:58;;;;;;;10.43;8.35;;;20.30;73.90;;;;;;4223249;28;20312;-72
2022/03/24 02:51:03;;;;;;;12.70;8.55;;;20.30;73.50;;;;;;4223166;28;20234;-73
2022/03/24 02:53:06;;;;;;;11.30;8.43;;;20.20;73.90;;;;;;4223133;28;20214;-73
2022/03/24 02:55:10;;;;;;;10.35;8.48;;;20.20;74.90;;;;;;4221261;28;20206;-73
2022/03/24 02:57:13;;;;;;;11.13;8.55;;;20.20;73.70;;;;;;4225054;28;20217;-73
2022/03/24 02:59:16;;;;;;;10.98;8.35;;;20.20;73.90;;;;;;4224891;28;20255;-73
2022/03/24 03:01:19;;;;;;;11.93;8.25;;;20.20;74.10;;;;;;4222251;28;21106;-73
2022/03/24 03:03:24;;;;;;;9.65;8.10;;;20.20;73.90;;;;;;4223322;28;20218;-73
2022/03/24 03:05:26;;;;;;;9.88;8.38;;;20.20;74.00;;;;;;4224221;28;20610;-73
2022/03/24 03:07:29;;;;;;;11.10;8.15;;;20.20;74.30;;;;;;4221281;28;20288;-73
2022/03/24 03:09:34;;;;;;;9.75;7.97;;;20.20;74.20;;;;;;4220382;28;20617;-73
2022/03/24 03:11:38;;;;;;;10.27;8.25;;;20.20;74.00;;;;;;4220199;28;20295;-74
2022/03/24 03:13:41;;;;;;;12.80;8.80;;;20.20;74.00;;;;;;4225966;28;20218;-73
2022/03/24 03:15:43;;;;;;;9.68;8.52;;;20.20;74.30;;;;;;4223141;28;20222;-73
2022/03/24 03:17:45;;;;;;;10.23;8.13;;;20.20;74.20;;;;;;4224132;28;20661;-73
2022/03/24 03:19:47;;;;;;;11.40;8.15;;;20.20;74.20;;;;;;4225448;28;20221;-73
2022/03/24 03:21:50;;;;;;;10.70;8.48;;;20.10;74.20;;;;;;4224756;28;20662;-73
2022/03/24 03:23:52;;;;;;;12.00;8.95;;;20.20;74.60;;;;;;4223793;28;20226;-73
2022/03/24 03:25:56;;;;;;;10.75;7.97;;;20.10;74.40;;;;;;4224797;28;20609;-73
2022/03/24 03:28:00;;;;;;;11.18;9.10;;;20.20;74.50;;;;;;4224777;28;20658;-73
2022/03/24 03:30:02;;;;;;;10.32;8.30;;;20.10;74.40;;;;;;4227018;28;20225;-73
2022/03/24 03:32:05;;;;;;;11.48;8.20;;;20.20;74.70;;;;;;4227266;27;20233;-73
2022/03/24 03:34:09;;;;;;;11.52;8.57;;;20.10;74.40;;;;;;4225939;27;20303;-73
2022/03/24 03:36:11;;;;;;;10.63;8.38;;;20.10;74.40;;;;;;4225904;28;20248;-73
2022/03/24 03:38:14;;;;;;;11.25;8.32;;;20.10;74.90;;;;;;4225771;27;20542;-73
2022/03/24 03:40:16;;;;;;;10.73;8.90;;;20.10;74.20;;;;;;4212444;28;20211;-73
2022/03/24 03:42:19;;;;;;;11.85;8.57;;;20.10;74.10;;;;;;4211276;28;20221;-74
2022/03/24 03:44:23;;;;;;;9.77;7.90;;;20.10;74.40;;;;;;4207866;28;20326;-73
2022/03/24 03:46:25;;;;;;;9.85;8.15;;;20.10;74.40;;;;;;4210841;28;20272;-73
2022/03/24 03:48:29;;;;;;;10.20;8.55;;;20.10;74.90;;;;;;4216647;28;20268;-73
2022/03/24 03:50:32;;;;;;;10.52;8.73;;;20.10;75.40;;;;;;4222890;28;20263;-73
2022/03/24 03:52:34;;;;;;;9.77;8.35;;;20.10;74.60;;;;;;4229084;28;20259;-74
2022/03/24 03:54:36;;;;;;;10.57;8.85;;;20.10;74.70;;;;;;4217104;28;20214;-73
2022/03/24 03:56:39;;;;;;;9.93;8.55;;;20.10;74.60;;;;;;4211864;28;20211;-73
2022/03/24 03:58:42;;;;;;;10.00;8.70;;;20.10;75.40;;;;;;4212001;28;20264;-73
2022/03/24 04:00:55;;;;;;;9.40;8.50;;;20.10;75.10;;;;;;4227377;28;20377;-73
2022/03/24 04:02:58;;;;;;;10.82;8.65;;;20.10;74.40;;;;;;4207798;28;20217;-73
2022/03/24 04:05:00;;;;;;;12.50;8.82;;;20.00;74.30;;;;;;4210259;28;20268;-73
2022/03/24 04:07:03;;;;;;;11.70;9.23;;;20.10;75.60;;;;;;4213352;28;20218;-73
2022/03/24 04:09:05;;;;;;;11.95;9.00;;;20.10;74.90;;;;;;4214088;28;20272;-73
2022/03/24 04:11:09;;;;;;;12.05;9.05;;;20.10;74.40;;;;;;4217642;28;20267;-73
2022/03/24 04:13:12;;;;;;;10.52;8.90;;;20.10;75.10;;;;;;4213861;28;20364;-73
2022/03/24 04:15:14;;;;;;;10.15;8.20;;;20.00;74.80;;;;;;4226213;28;20251;-73
2022/03/24 04:17:19;;;;;;;10.43;8.65;;;20.00;74.50;;;;;;4230768;28;20225;-73
2022/03/24 04:19:21;;;;;;;10.70;8.80;;;20.00;74.70;;;;;;4230970;28;20210;-73
2022/03/24 04:21:23;;;;;;;11.25;9.73;;;20.00;74.70;;;;;;4230942;28;20262;-73
2022/03/24 04:23:26;;;;;;;10.82;8.40;;;20.00;74.90;;;;;;4230985;28;20678;-73
2022/03/24 04:25:29;;;;;;;10.25;8.70;;;20.00;75.20;;;;;;4240823;27;20221;-73
2022/03/24 04:27:31;;;;;;;11.13;8.93;;;20.00;75.30;;;;;;4233786;27;20271;-73
2022/03/24 04:29:33;;;;;;;11.52;9.43;;;20.00;75.20;;;;;;4230463;28;20214;-73
2022/03/24 04:31:36;;;;;;;11.63;9.65;;;20.00;75.20;;;;;;4227499;28;20270;-74
2022/03/24 04:33:39;;;;;;;11.18;8.75;;;20.00;74.70;;;;;;4230349;28;20262;-73
2022/03/24 04:35:42;;;;;;;11.52;9.57;;;19.90;75.20;;;;;;4230131;28;20222;-73
2022/03/24 04:37:45;;;;;;;10.85;9.05;;;20.00;74.80;;;;;;4230667;28;20278;-73
2022/03/24 04:39:47;;;;;;;12.75;9.35;;;20.00;75.00;;;;;;4227196;28;20233;-73
2022/03/24 04:41:51;;;;;;;10.80;9.05;;;19.90;75.20;;;;;;4229995;28;20197;-73
2022/03/24 04:43:55;;;;;;;13.27;9.60;;;20.00;74.80;;;;;;4222663;28;20214;-73
2022/03/24 04:45:57;;;;;;;11.23;8.77;;;19.90;75.20;;;;;;4225610;28;20262;-73
2022/03/24 04:47:59;;;;;;;10.35;9.23;;;19.90;75.60;;;;;;4229620;28;20225;-74
2022/03/24 04:50:04;;;;;;;10.02;8.85;;;19.90;75.20;;;;;;4230108;28;20255;-73
2022/03/24 04:52:07;;;;;;;10.73;8.65;;;19.90;75.10;;;;;;4229892;28;20313;-74
2022/03/24 04:54:10;;;;;;;11.13;9.07;;;19.90;75.00;;;;;;4230105;28;20225;-73
2022/03/24 04:56:12;;;;;;;11.63;8.80;;;19.90;75.40;;;;;;4228598;28;20298;-74
2022/03/24 04:58:15;;;;;;;10.52;9.43;;;19.90;75.20;;;;;;4230074;28;20270;-73
2022/03/24 05:00:18;;;;;;;12.43;9.30;;;19.90;75.20;;;;;;4220744;28;20214;-73
2022/03/24 05:02:20;;;;;;;12.13;9.80;;;19.90;75.20;;;;;;4224773;28;20210;-73
2022/03/24 05:04:23;;;;;;;12.35;9.52;;;19.90;75.10;;;;;;4227297;28;20627;-73
2022/03/24 05:06:27;;;;;;;14.00;9.57;;;19.90;75.20;;;;;;4228725;28;20275;-74
2022/03/24 05:08:29;;;;;;;12.18;9.55;;;19.90;75.60;;;;;;4229347;28;20221;-73
2022/03/24 05:10:32;;;;;;;10.82;9.73;;;19.90;75.20;;;;;;4229287;28;20221;-73
2022/03/24 05:12:34;;;;;;;11.68;9.75;;;19.90;75.70;;;;;;4229606;28;20291;-73
2022/03/24 05:14:37;;;;;;;11.10;9.77;;;19.80;75.30;;;;;;4223630;28;20287;-74
2022/03/24 05:16:39;;;;;;;10.77;9.52;;;19.80;75.20;;;;;;4226953;28;20221;-74
2022/03/24 05:18:42;;;;;;;11.75;9.30;;;19.80;75.70;;;;;;4221817;28;20663;-74
2022/03/24 05:20:44;;;;;;;9.70;8.70;;;19.80;75.10;;;;;;4218731;28;20687;-74
2022/03/24 05:22:48;;;;;;;10.05;8.38;;;19.80;75.80;;;;;;4222997;28;20266;-73
2022/03/24 05:24:50;;;;;;;10.77;9.68;;;19.80;75.50;;;;;;4229561;28;20226;-76
2022/03/24 05:26:52;;;;;;;11.32;10.13;;;19.80;75.40;;;;;;4229506;28;20286;-74
2022/03/24 05:28:55;;;;;;;12.27;9.80;;;19.80;75.10;;;;;;4228980;28;20379;-73
2022/03/24 05:30:57;;;;;;;12.20;9.70;;;19.80;75.60;;;;;;4229478;28;20217;-74
2022/03/24 05:33:00;;;;;;;12.98;9.25;;;19.80;75.10;;;;;;4229175;28;20268;-73
2022/03/24 05:35:02;;;;;;;11.60;8.90;;;19.80;75.10;;;;;;4217644;28;20209;-73
2022/03/24 05:37:05;;;;;;;11.02;9.25;;;19.80;76.00;;;;;;4224803;28;20221;-73
2022/03/24 05:39:09;;;;;;;11.50;9.38;;;19.80;75.20;;;;;;4222179;28;20233;-73
2022/03/24 05:41:12;;;;;;;13.38;9.82;;;19.80;75.40;;;;;;4225130;27;20210;-73
2022/03/24 05:43:15;;;;;;;12.18;9.38;;;19.80;75.80;;;;;;4223950;27;20621;-73
2022/03/24 05:45:17;;;;;;;12.80;9.88;;;19.70;76.40;;;;;;4219958;28;20210;-73
2022/03/24 05:47:19;;;;;;;11.52;9.52;;;19.70;75.20;;;;;;4219858;28;20222;-73
2022/03/24 05:49:21;;;;;;;13.23;10.00;;;19.80;75.80;;;;;;4232454;27;20207;-73
2022/03/24 05:51:24;;;;;;;11.45;9.23;;;19.80;75.60;;;;;;4229365;28;20268;-73
2022/03/24 05:53:28;;;;;;;11.07;9.60;;;19.80;75.30;;;;;;4228359;28;20233;-73
2022/03/24 05:55:34;;;;;;;13.35;9.93;;;19.70;75.40;;;;;;4229148;28;20267;-73
2022/03/24 05:57:37;;;;;;;11.80;9.18;;;19.70;75.40;;;;;;4228541;28;20250;-73
2022/03/24 05:59:39;;;;;;;12.65;9.93;;;19.70;75.10;;;;;;4228815;28;20221;-73
2022/03/24 06:01:43;;;;;;;11.15;9.52;;;19.70;75.50;;;;;;4222771;28;20211;-73
2022/03/24 06:03:47;;;;;;;13.15;9.63;;;19.60;75.50;;;;;;4217165;28;20214;-73
2022/03/24 06:05:49;;;;;;;12.70;10.45;;;19.70;76.70;;;;;;4228895;28;20619;-73
2022/03/24 06:07:52;;;;;;;14.05;9.90;;;19.70;77.50;;;;;;4229159;28;20974;-73
2022/03/24 06:09:54;;;;;;;11.98;9.50;;;19.70;76.70;;;;;;4229350;28;20218;-73
2022/03/24 06:11:58;;;;;;;13.57;10.07;;;19.70;77.70;;;;;;4228922;28;20213;-73
2022/03/24 06:14:01;;;;;;;12.30;9.55;;;19.70;78.30;;;;;;4225445;28;20287;-73
2022/03/24 06:16:03;;;;;;;11.35;9.55;;;19.70;77.90;;;;;;4228632;28;20264;-73
2022/03/24 06:18:05;;;;;;;11.00;9.57;;;19.80;78.00;;;;;;4228926;28;20241;-73
2022/03/24 06:20:09;;;;;;;11.88;9.38;;;19.70;79.00;;;;;;4211542;28;20214;-73
2022/03/24 06:22:12;;;;;;;10.60;9.48;;;19.80;79.20;;;;;;4228631;28;20218;-73
2022/03/24 06:24:14;;;;;;;11.60;9.63;;;19.80;79.10;;;;;;4212839;28;20214;-73
2022/03/24 06:26:19;;;;;;;13.15;10.77;;;19.80;79.70;;;;;;4222982;28;20210;-73
2022/03/24 06:28:22;;;;;;;11.43;9.70;;;19.70;79.70;;;;;;4225071;28;20271;-73
2022/03/24 06:30:25;;;;;;;11.70;9.32;;;19.80;79.90;;;;;;4228380;28;20704;-73
2022/03/24 06:32:28;;;;;;;10.88;9.77;;;19.80;79.30;;;;;;4228847;28;20225;-73
2022/03/24 06:34:30;;;;;;;11.60;9.32;;;19.80;80.00;;;;;;4223574;28;20751;-73
2022/03/24 06:36:33;;;;;;;15.18;11.00;;;19.80;80.10;;;;;;4213695;28;20259;-73
2022/03/24 06:38:35;;;;;;;11.30;9.95;;;19.80;80.00;;;;;;4217524;28;20639;-73
2022/03/24 06:40:39;;;;;;;11.60;9.75;;;19.80;79.80;;;;;;4217979;28;20560;-73
2022/03/24 06:42:41;;;;;;;14.32;10.65;;;19.80;80.20;;;;;;4208446;28;20210;-73
2022/03/24 06:44:45;;;;;;;14.55;10.45;;;19.80;80.10;;;;;;4224782;28;20214;-73
2022/03/24 06:46:48;;;;;;;12.35;10.10;;;19.80;80.10;;;;;;4228088;28;20217;-73
2022/03/24 06:48:50;;;;;;;13.55;10.40;;;19.80;80.30;;;;;;4228408;28;20275;-73
2022/03/24 06:50:52;;;;;;;13.77;10.52;;;19.90;81.10;;;;;;4228750;28;20271;-73
2022/03/24 06:52:55;;;;;;;12.32;10.85;;;19.90;80.10;;;;;;4228017;28;20206;-73
2022/03/24 06:54:57;;;;;;;13.95;10.48;;;19.90;80.10;;;;;;4228640;28;20291;-73
2022/03/24 06:57:00;;;;;;;14.43;10.48;;;19.90;80.20;;;;;;4228161;28;20287;-73
2022/03/24 06:59:02;;;;;;;14.85;10.63;;;19.90;80.20;;;;;;4218971;28;20290;-73
2022/03/24 07:01:06;;;;;;;16.30;11.00;;;19.90;81.10;;;;;;4225564;28;20221;-73
2022/03/24 07:03:08;;;;;;;11.43;10.23;;;19.90;80.20;;;;;;4216875;28;20278;-73
2022/03/24 07:05:11;;;;;;;16.20;10.48;;;19.90;80.00;;;;;;4227455;28;20252;-73
2022/03/24 07:07:13;;;;;;;12.40;11.02;;;20.00;80.50;;;;;;4231419;28;20221;-73
2022/03/24 07:09:16;;;;;;;13.05;10.00;;;20.00;80.30;;;;;;4231822;28;20217;-73
2022/03/24 07:11:18;;;;;;;14.88;10.95;;;20.00;80.40;;;;;;4228346;28;20243;-73
2022/03/24 07:13:21;;;;;;;15.15;11.15;;;20.00;80.40;;;;;;4227628;28;20251;-73
2022/03/24 07:15:25;;;;;;;17.70;11.73;;;20.00;80.30;;;;;;4231556;28;20218;-73
2022/03/24 07:17:29;;;;;;;14.68;10.40;;;20.00;80.00;;;;;;4232119;28;20617;-73
2022/03/24 07:19:31;;;;;;;20.90;11.27;;;20.00;79.80;;;;;;4231888;28;20308;-73
2022/03/24 07:21:34;;;;;;;19.45;11.43;;;20.10;80.10;;;;;;4231057;28;20222;-73
2022/03/24 07:23:36;;;;;;;21.48;12.32;;;20.10;80.30;;;;;;4229386;27;20214;-73
2022/03/24 07:25:39;;;;;;;23.45;11.85;;;20.10;80.20;;;;;;4219716;28;20271;-73
2022/03/24 07:27:42;;;;;;;25.85;12.50;;;20.10;80.00;;;;;;4237946;27;20470;-73
2022/03/24 07:29:45;;;;;;;22.17;12.82;;;20.10;80.10;;;;;;4231335;28;20271;-73
2022/03/24 07:31:47;;;;;;;20.95;12.15;;;20.10;79.90;;;;;;4231658;28;20209;-73
2022/03/24 07:33:53;;;;;;;25.63;12.52;;;20.20;80.70;;;;;;4231259;28;20237;-73
2022/03/24 07:35:55;;;;;;;27.08;12.77;;;20.20;80.00;;;;;;4231427;28;20280;-73
2022/03/24 07:37:58;;;;;;;28.75;13.10;;;20.20;79.80;;;;;;4230949;28;20217;-73
2022/03/24 07:40:00;;;;;;;20.92;11.15;;;20.20;79.90;;;;;;4230454;28;20234;-73
2022/03/24 07:42:02;;;;;;;23.33;12.35;;;20.20;79.70;;;;;;4231232;28;20221;-73
2022/03/24 07:44:06;;;;;;;24.95;12.75;;;20.20;79.90;;;;;;4231570;28;20214;-73
2022/03/24 07:46:08;;;;;;;20.63;11.90;;;20.20;79.30;;;;;;4221337;28;20651;-73
2022/03/24 07:48:16;;;;;;;19.08;12.38;;;20.30;79.50;;;;;;4223286;28;20275;-73
2022/03/24 07:50:20;;;;;;;29.20;14.52;;;20.30;79.80;;;;;;4229462;28;20725;-73
2022/03/24 07:52:27;;;;;;;31.95;12.85;;;20.30;78.90;;;;;;4227285;27;20240;-73
2022/03/24 07:54:45;;;;;;;26.00;15.10;;;20.40;79.60;;;;;;4216411;27;20264;-73
2022/03/24 07:56:47;;;;;;;29.35;14.35;;;20.40;78.10;;;;;;4216808;27;20217;-73
2022/03/24 07:58:49;;;;;;;25.02;13.70;;;20.30;79.10;;;;;;4221514;28;20891;-73
2022/03/24 08:00:52;;;;;;;26.17;14.52;;;20.40;79.60;;;;;;4219417;27;20421;-74
2022/03/24 08:02:54;;;;;;;25.90;13.95;;;20.30;80.40;;;;;;4226154;27;20216;-73
2022/03/24 08:04:56;;;;;;;19.67;13.18;;;20.40;80.50;;;;;;4222888;28;20270;-75
2022/03/24 08:07:00;;;;;;;22.90;14.25;;;20.40;80.20;;;;;;4216084;27;20364;-74
2022/03/24 08:09:02;;;;;;;23.95;14.57;;;20.40;80.60;;;;;;4222792;28;20241;-74
2022/03/24 08:11:05;;;;;;;25.80;13.68;;;20.40;80.10;;;;;;4221909;28;22250;-75
2022/03/24 08:13:09;;;;;;;24.83;14.68;;;20.50;79.70;;;;;;4220448;27;20210;-75
2022/03/24 08:15:12;;;;;;;22.92;14.40;;;20.40;81.30;;;;;;4218406;27;20284;-74
2022/03/24 08:17:14;;;;;;;26.30;14.20;;;20.50;81.00;;;;;;4213599;27;20219;-74
2022/03/24 08:19:16;;;;;;;27.38;16.83;;;20.60;80.20;;;;;;4220901;27;21209;-74
2022/03/24 08:21:19;;;;;;;25.80;15.05;;;20.60;79.60;;;;;;4226726;27;20264;-75
2022/03/24 08:23:23;;;;;;;23.73;14.27;;;20.60;79.30;;;;;;4212393;28;20222;-74
2022/03/24 08:25:25;;;;;;;23.70;14.05;;;20.70;79.40;;;;;;4220561;27;20210;-73
2022/03/24 08:27:28;;;;;;;30.17;16.83;;;20.70;79.50;;;;;;4217956;27;20217;-73
2022/03/24 08:29:31;;;;;;;22.25;14.27;;;20.60;79.30;;;;;;4217260;27;20218;-75
2022/03/24 08:31:33;;;;;;;29.70;14.73;;;20.70;79.90;;;;;;4225548;27;20221;-73
2022/03/24 08:33:36;;;;;;;24.63;15.38;;;20.70;78.80;;;;;;4219852;27;21767;-74
2022/03/24 08:35:39;;;;;;;29.92;16.00;;;20.70;79.50;;;;;;4221678;27;20770;-74
2022/03/24 08:37:42;;;;;;;26.45;16.17;;;20.80;78.10;;;;;;4220692;27;20271;-74
2022/03/24 08:39:46;;;;;;;25.55;15.05;;;20.80;78.70;;;;;;4218105;28;20237;-74
2022/03/24 08:41:48;;;;;;;20.48;13.68;;;20.90;79.10;;;;;;4224504;27;20218;-73
2022/03/24 08:43:50;;;;;;;22.27;13.43;;;20.90;79.10;;;;;;4222775;27;21267;-74
2022/03/24 08:45:53;;;;;;;22.55;12.63;;;20.90;79.60;;;;;;4219833;28;20213;-74
2022/03/24 08:47:55;;;;;;;22.90;13.40;;;20.90;80.00;;;;;;4223104;27;20243;-75
2022/03/24 08:49:57;;;;;;;19.65;13.98;;;21.00;81.60;;;;;;4219724;27;20209;-74
2022/03/24 08:52:00;;;;;;;28.65;15.07;;;21.00;81.00;;;;;;4217792;27;20214;-74
2022/03/24 08:54:02;;;;;;;23.85;14.80;;;20.90;80.00;;;;;;4212733;28;20712;-75
2022/03/24 08:56:07;;;;;;;28.23;14.85;;;20.90;79.80;;;;;;4221754;27;20272;-73
2022/03/24 08:58:10;;;;;;;23.95;14.25;;;20.90;79.70;;;;;;4210549;28;20272;-73
2022/03/24 09:00:15;;;;;;;21.10;12.95;;;20.90;79.60;;;;;;4219436;27;21076;-72
2022/03/24 09:02:18;;;;;;;24.77;14.23;;;20.90;79.10;;;;;;4218468;28;20259;-73
2022/03/24 09:04:23;;;;;;;25.77;13.35;;;21.00;80.70;;;;;;4220413;27;20214;-73
2022/03/24 09:06:25;;;;;;;20.73;12.77;;;20.90;82.30;;;;;;4218141;28;20632;-74
2022/03/24 09:08:28;;;;;;;19.27;12.73;;;21.00;80.80;;;;;;4217476;27;20291;-73
2022/03/24 09:10:30;;;;;;;19.27;11.60;;;21.00;80.90;;;;;;4220511;27;20556;-73
2022/03/24 09:12:37;;;;;;;16.88;12.27;;;21.00;80.30;;;;;;4218952;28;20218;-73
2022/03/24 09:14:41;;;;;;;20.90;13.07;;;21.00;80.70;;;;;;4219644;27;20276;-73
2022/03/24 09:16:45;;;;;;;19.55;12.50;;;21.00;80.10;;;;;;4215016;28;20222;-73
2022/03/24 09:18:47;;;;;;;19.98;11.93;;;21.10;81.10;;;;;;4219137;27;20222;-73
2022/03/24 09:20:50;;;;;;;24.25;13.07;;;21.10;81.20;;;;;;4223625;27;20214;-73
2022/03/24 09:22:52;;;;;;;19.75;13.32;;;21.10;81.30;;;;;;4220201;27;20244;-74
2022/03/24 09:24:54;;;;;;;23.77;12.77;;;21.10;81.80;;;;;;4219435;27;21446;-73
2022/03/24 09:26:57;;;;;;;18.83;12.52;;;21.10;81.10;;;;;;4216859;28;20206;-75
2022/03/24 09:29:01;;;;;;;22.15;12.50;;;21.10;81.00;;;;;;4224895;27;20222;-72
2022/03/24 09:31:03;;;;;;;21.83;12.00;;;21.20;81.20;;;;;;4224564;27;20631;-72
2022/03/24 09:33:06;;;;;;;17.25;11.95;;;21.20;82.00;;;;;;4222862;27;20214;-73
2022/03/24 09:35:09;;;;;;;19.08;12.55;;;21.20;81.60;;;;;;4222379;27;20268;-74
2022/03/24 09:37:12;;;;;;;21.08;14.77;;;21.20;81.10;;;;;;4217785;27;20218;-73
2022/03/24 09:39:15;;;;;;;27.48;14.50;;;21.30;80.20;;;;;;4224062;27;20979;-73
2022/03/24 09:41:20;;;;;;;20.42;12.32;;;21.30;80.50;;;;;;4221707;28;20658;-73
2022/03/24 09:43:23;;;;;;;25.05;13.95;;;21.30;80.10;;;;;;4220373;27;20221;-73
2022/03/24 09:45:28;;;;;;;18.40;12.50;;;21.30;80.20;;;;;;4220365;27;20205;-73
2022/03/24 09:47:31;;;;;;;18.55;11.68;;;21.30;81.60;;;;;;4215123;28;21562;-73
2022/03/24 09:49:34;;;;;;;21.10;13.45;;;21.30;81.40;;;;;;4208930;28;20226;-73
2022/03/24 09:51:39;;;;;;;20.52;11.68;;;21.30;81.40;;;;;;4213098;27;20206;-73
2022/03/24 09:53:41;;;;;;;17.77;11.52;;;21.30;82.30;;;;;;4210582;27;20259;-73
2022/03/24 09:55:45;;;;;;;17.02;11.43;;;21.30;81.80;;;;;;4219443;27;20242;-73
2022/03/24 09:57:48;;;;;;;15.70;11.63;;;21.40;81.90;;;;;;4219229;27;20222;-72
2022/03/24 10:00:01;;;;;;;17.98;11.10;;;21.30;81.70;;;;;;4220689;27;20218;-72
2022/03/24 10:02:07;;;;;;;20.00;11.20;;;21.30;82.30;;;;;;4218968;27;20954;-72
2022/03/24 10:04:13;;;;;;;19.38;10.60;;;21.30;83.90;;;;;;4217442;28;20217;-73
2022/03/24 10:06:15;;;;;;;17.90;10.77;;;21.40;83.90;;;;;;4221172;27;20263;-72
2022/03/24 10:08:19;;;;;;;14.70;10.55;;;21.30;82.20;;;;;;4220228;28;20275;-73
2022/03/24 10:10:25;;;;;;;19.35;11.40;;;21.30;83.40;;;;;;4218628;28;20610;-73
2022/03/24 10:12:30;;;;;;;15.20;10.25;;;21.40;82.40;;;;;;4219467;27;20230;-72
2022/03/24 10:14:33;;;;;;;16.48;10.40;;;21.40;82.70;;;;;;4215882;28;20209;-72
2022/03/24 10:16:43;;;;;;;17.65;11.43;;;21.30;82.40;;;;;;4215195;28;20236;-71
2022/03/24 10:19:01;;;;;;;15.90;11.93;;;21.30;82.20;;;;;;4219916;27;20549;-72
2022/03/24 10:21:04;;;;;;;18.08;11.35;;;21.30;82.40;;;;;;4217664;27;20601;-72
2022/03/24 10:23:07;;;;;;;21.98;10.82;;;21.30;82.10;;;;;;4216405;28;20655;-72
2022/03/24 10:25:21;;;;;;;17.92;10.60;;;21.30;82.20;;;;;;4216910;28;20205;-73
2022/03/24 10:27:27;;;;;;;15.18;11.07;;;21.30;82.90;;;;;;4216774;27;20287;-72
2022/03/24 10:29:31;;;;;;;15.02;9.82;;;21.30;82.30;;;;;;4217200;28;20267;-72